Time;durP1;ratioP1;P1;durP2;ratioP2;P2;SDS_P1;SDS_P2;PMS_P1;PMS_P2;Temp;Humidity;BMP_temperature;BMP_pressure;BME280_temperature;BME280_humidity;BME280_pressure;Samples;Min_cycle;Max_cycle;Signal;HPM_P1;HPM_P2
2024/03/31 00:01:41;;;;;;;0.47;0.20;;;15.30;82.80;;;;;;5003253;28;20514;-76
2024/03/31 00:04:07;;;;;;;0.20;0.20;;;15.30;82.00;;;;;;5002888;28;20026;-76
2024/03/31 00:06:33;;;;;;;0.10;0.10;;;15.30;81.90;;;;;;4985787;28;20056;-76
2024/03/31 00:08:58;;;;;;;0.30;0.20;;;15.30;82.20;;;;;;5001932;28;20503;-76
2024/03/31 00:11:24;;;;;;;0.10;0.10;;;15.30;81.90;;;;;;5003605;28;20049;-76
2024/03/31 00:13:50;;;;;;;0.10;0.10;;;15.40;81.90;;;;;;4987943;28;20618;-76
2024/03/31 00:16:15;;;;;;;0.10;0.10;;;15.30;82.40;;;;;;5002952;28;20049;-76
2024/03/31 00:18:41;;;;;;;0.05;0.05;;;15.30;82.50;;;;;;5005403;28;20092;-76
2024/03/31 00:21:07;;;;;;;0.10;0.10;;;15.30;82.40;;;;;;5003910;28;20033;-76
2024/03/31 00:23:32;;;;;;;0.20;0.20;;;15.30;82.70;;;;;;5033910;28;20050;-76
2024/03/31 00:25:58;;;;;;;0.10;0.10;;;15.30;82.00;;;;;;4990516;28;20053;-76
2024/03/31 00:28:24;;;;;;;0.10;0.10;;;15.30;81.70;;;;;;4972377;28;20523;-76
2024/03/31 00:30:57;;;;;;;0.10;0.10;;;15.30;82.00;;;;;;5007487;28;20129;-76
2024/03/31 00:33:25;;;;;;;0.25;0.25;;;15.30;82.80;;;;;;5008772;28;20066;-76
2024/03/31 00:35:54;;;;;;;0.10;0.10;;;15.30;81.90;;;;;;5007503;28;20084;-76
2024/03/31 00:38:20;;;;;;;0.10;0.10;;;15.30;82.50;;;;;;5006589;28;20411;-76
2024/03/31 00:40:46;;;;;;;0.20;0.20;;;15.30;81.80;;;;;;5009395;28;20525;-76
2024/03/31 00:43:12;;;;;;;0.10;0.10;;;15.30;81.70;;;;;;5006684;28;20136;-76
2024/03/31 00:45:39;;;;;;;0.10;0.10;;;15.30;82.20;;;;;;5008692;28;20046;-76
2024/03/31 00:48:05;;;;;;;0.20;0.20;;;15.30;81.70;;;;;;5008534;28;20034;-76
2024/03/31 00:50:31;;;;;;;0.00;0.00;;;15.30;82.10;;;;;;5035350;28;20526;-76
2024/03/31 00:52:57;;;;;;;0.10;0.10;;;15.30;81.80;;;;;;4991205;28;20045;-76
2024/03/31 00:55:23;;;;;;;0.13;0.13;;;15.30;81.70;;;;;;5006599;28;20042;-76
2024/03/31 00:57:49;;;;;;;0.30;0.10;;;15.30;82.50;;;;;;5007896;28;20052;-76
2024/03/31 01:00:16;;;;;;;0.03;0.03;;;15.30;82.10;;;;;;5015045;28;20030;-76
2024/03/31 01:02:42;;;;;;;0.10;0.10;;;15.30;81.70;;;;;;5007678;28;20038;-76
2024/03/31 01:05:08;;;;;;;0.00;0.00;;;15.30;82.30;;;;;;5006832;28;20116;-76
2024/03/31 01:07:33;;;;;;;0.10;0.10;;;15.30;81.50;;;;;;5005786;28;20121;-76
2024/03/31 01:09:59;;;;;;;0.10;0.10;;;15.30;82.40;;;;;;5004903;28;20052;-76
2024/03/31 01:12:24;;;;;;;0.22;0.22;;;15.30;82.30;;;;;;5006534;28;20081;-76
2024/03/31 01:14:50;;;;;;;0.10;0.10;;;15.30;81.40;;;;;;5007427;28;20088;-76
2024/03/31 01:17:15;;;;;;;0.10;0.10;;;15.30;81.60;;;;;;5006201;28;20125;-76
2024/03/31 01:19:41;;;;;;;0.10;0.10;;;15.30;82.00;;;;;;5007901;28;20038;-76
2024/03/31 01:22:07;;;;;;;0.10;0.10;;;15.30;82.30;;;;;;5005834;28;20057;-76
2024/03/31 01:24:32;;;;;;;0.10;0.10;;;15.30;82.10;;;;;;5015647;28;21093;-76
2024/03/31 01:26:58;;;;;;;0.10;0.10;;;15.20;82.00;;;;;;5006517;28;20045;-76
2024/03/31 01:29:23;;;;;;;0.20;0.20;;;15.20;81.70;;;;;;5008866;28;20048;-76
2024/03/31 01:31:49;;;;;;;0.10;0.10;;;15.30;82.00;;;;;;5006455;28;20678;-76
2024/03/31 01:34:14;;;;;;;0.10;0.10;;;15.20;81.60;;;;;;5004991;28;20050;-76
2024/03/31 01:36:41;;;;;;;0.10;0.10;;;15.30;82.20;;;;;;5007902;28;20434;-76
2024/03/31 01:39:07;;;;;;;0.13;0.10;;;15.20;81.70;;;;;;5005351;28;20499;-76
2024/03/31 01:41:32;;;;;;;0.00;0.00;;;15.30;81.80;;;;;;5035854;28;20084;-76
2024/03/31 01:43:58;;;;;;;0.03;0.03;;;15.30;81.60;;;;;;5003584;28;20052;-76
2024/03/31 01:46:23;;;;;;;0.10;0.10;;;15.20;82.00;;;;;;5003938;28;20042;-76
2024/03/31 01:48:49;;;;;;;0.10;0.10;;;15.20;81.50;;;;;;5007010;28;20049;-76
2024/03/31 01:51:14;;;;;;;0.08;0.08;;;15.20;82.10;;;;;;5006309;28;20048;-76
2024/03/31 01:53:40;;;;;;;0.10;0.10;;;15.20;82.50;;;;;;5007539;28;20062;-76
2024/03/31 01:56:06;;;;;;;0.10;0.10;;;15.20;82.20;;;;;;5004450;28;20049;-76
2024/03/31 01:58:31;;;;;;;0.10;0.10;;;15.20;82.10;;;;;;4990666;28;20492;-76
2024/03/31 02:00:57;;;;;;;0.10;0.10;;;15.20;82.00;;;;;;5000251;28;20426;-76
2024/03/31 02:03:22;;;;;;;0.10;0.10;;;15.20;81.40;;;;;;5005486;28;20038;-77
2024/03/31 02:05:48;;;;;;;0.10;0.10;;;15.20;81.60;;;;;;5006493;28;20108;-76
2024/03/31 02:08:14;;;;;;;0.10;0.10;;;15.20;82.20;;;;;;5002406;28;20096;-76
2024/03/31 02:10:40;;;;;;;0.10;0.10;;;15.20;82.00;;;;;;5004547;28;20500;-76
2024/03/31 02:13:05;;;;;;;0.10;0.10;;;15.20;82.30;;;;;;5006811;28;20050;-76
2024/03/31 02:15:31;;;;;;;0.10;0.10;;;15.20;81.70;;;;;;5008086;28;20489;-76
2024/03/31 02:17:56;;;;;;;0.10;0.10;;;15.20;81.90;;;;;;5005257;28;20045;-76
2024/03/31 02:20:22;;;;;;;0.10;0.10;;;15.20;81.60;;;;;;5005806;28;20503;-76
2024/03/31 02:22:50;;;;;;;0.10;0.10;;;15.20;81.70;;;;;;5037679;28;20046;-76
2024/03/31 02:25:16;;;;;;;0.10;0.10;;;15.20;81.90;;;;;;5006094;28;20164;-76
2024/03/31 02:27:42;;;;;;;0.10;0.10;;;15.20;81.60;;;;;;5036377;28;20051;-76
2024/03/31 02:30:07;;;;;;;0.15;0.10;;;15.20;81.40;;;;;;4989956;28;20038;-76
2024/03/31 02:32:33;;;;;;;0.10;0.10;;;15.20;81.70;;;;;;5005411;28;20052;-76
2024/03/31 02:34:59;;;;;;;0.10;0.10;;;15.20;81.60;;;;;;5004049;28;20496;-76
2024/03/31 02:37:24;;;;;;;0.10;0.10;;;15.20;81.50;;;;;;5005639;28;20044;-76
2024/03/31 02:39:50;;;;;;;0.10;0.10;;;15.20;81.90;;;;;;5005126;28;20037;-76
2024/03/31 02:42:16;;;;;;;0.15;0.15;;;15.20;81.90;;;;;;5007251;28;20073;-76
2024/03/31 02:44:41;;;;;;;0.20;0.20;;;15.20;81.70;;;;;;5031536;28;20483;-76
2024/03/31 02:47:07;;;;;;;0.22;0.22;;;15.20;81.60;;;;;;5005180;28;20034;-76
2024/03/31 02:49:32;;;;;;;0.10;0.10;;;15.20;82.00;;;;;;5004524;28;20057;-76
2024/03/31 02:51:58;;;;;;;0.13;0.13;;;15.20;81.60;;;;;;5004743;28;20202;-76
2024/03/31 02:54:23;;;;;;;0.10;0.10;;;15.20;82.10;;;;;;5005733;28;20058;-76
2024/03/31 02:56:49;;;;;;;0.10;0.10;;;15.20;81.70;;;;;;5005103;28;20042;-76
2024/03/31 02:59:15;;;;;;;0.30;0.10;;;15.20;82.00;;;;;;5003274;28;20064;-76
2024/03/31 03:01:40;;;;;;;0.20;0.20;;;15.20;82.00;;;;;;5004545;28;20042;-76
2024/03/31 03:04:06;;;;;;;0.10;0.10;;;15.10;81.90;;;;;;5033277;28;20077;-76
2024/03/31 03:06:31;;;;;;;0.15;0.15;;;15.20;82.30;;;;;;5005416;28;20053;-76
2024/03/31 03:08:57;;;;;;;0.15;0.15;;;15.10;82.10;;;;;;4988139;28;20044;-76
2024/03/31 03:11:23;;;;;;;0.32;0.20;;;15.20;82.40;;;;;;4989083;28;20093;-76
2024/03/31 03:13:48;;;;;;;0.10;0.10;;;15.20;82.00;;;;;;4989630;28;20041;-76
2024/03/31 03:16:14;;;;;;;0.10;0.10;;;15.20;82.40;;;;;;5003384;28;20507;-76
2024/03/31 03:18:39;;;;;;;0.10;0.10;;;15.10;81.70;;;;;;5007149;28;20045;-76
2024/03/31 03:21:05;;;;;;;0.15;0.15;;;15.20;82.20;;;;;;5003957;28;20048;-76
2024/03/31 03:23:31;;;;;;;0.10;0.10;;;15.20;82.10;;;;;;5002958;28;20117;-76
2024/03/31 03:25:57;;;;;;;0.17;0.17;;;15.20;82.10;;;;;;5004424;28;20565;-76
2024/03/31 03:28:23;;;;;;;0.20;0.20;;;15.10;81.90;;;;;;5003299;28;20042;-76
2024/03/31 03:30:48;;;;;;;0.15;0.15;;;15.10;82.80;;;;;;5005182;28;20037;-76
2024/03/31 03:33:14;;;;;;;0.10;0.10;;;15.10;82.60;;;;;;5034961;28;20478;-76
2024/03/31 03:35:40;;;;;;;0.20;0.20;;;15.20;82.50;;;;;;5030244;28;20502;-76
2024/03/31 03:38:05;;;;;;;0.10;0.10;;;15.10;81.70;;;;;;5004158;28;20052;-76
2024/03/31 03:40:31;;;;;;;0.10;0.10;;;15.10;81.90;;;;;;5000300;28;20512;-76
2024/03/31 03:42:57;;;;;;;0.10;0.10;;;15.10;81.80;;;;;;5004259;28;20046;-76
2024/03/31 03:45:22;;;;;;;0.20;0.20;;;15.10;82.30;;;;;;5018595;28;20530;-76
2024/03/31 03:47:48;;;;;;;0.10;0.10;;;15.20;81.90;;;;;;5005777;28;20034;-76
2024/03/31 03:50:13;;;;;;;0.00;0.00;;;15.10;82.90;;;;;;5003847;28;20064;-76
2024/03/31 03:52:39;;;;;;;0.20;0.20;;;15.10;82.20;;;;;;5034078;28;20030;-76
2024/03/31 03:55:05;;;;;;;0.20;0.20;;;15.10;81.80;;;;;;5004619;28;20088;-76
2024/03/31 03:57:31;;;;;;;0.20;0.20;;;15.10;82.10;;;;;;5004430;28;20034;-76
2024/03/31 03:59:57;;;;;;;0.20;0.20;;;15.20;82.10;;;;;;5003143;28;20126;-76
2024/03/31 04:02:22;;;;;;;0.10;0.10;;;15.10;81.90;;;;;;5037258;28;20173;-76
2024/03/31 04:04:48;;;;;;;0.10;0.10;;;15.10;81.90;;;;;;5007800;28;20419;-76
2024/03/31 04:07:13;;;;;;;0.00;0.00;;;15.10;81.40;;;;;;5039319;28;20049;-76
2024/03/31 04:09:39;;;;;;;0.17;0.10;;;15.10;81.90;;;;;;5006751;28;20057;-76
2024/03/31 04:12:05;;;;;;;0.17;0.10;;;15.10;82.30;;;;;;5006386;28;20137;-76
2024/03/31 04:14:31;;;;;;;0.10;0.10;;;15.10;82.20;;;;;;5009982;28;20049;-76
2024/03/31 04:16:56;;;;;;;0.10;0.10;;;15.10;81.90;;;;;;5018270;28;20046;-76
2024/03/31 04:19:26;;;;;;;0.10;0.10;;;15.10;82.30;;;;;;5008058;28;20050;-76
2024/03/31 04:21:51;;;;;;;0.10;0.10;;;15.10;82.70;;;;;;5007423;28;20045;-77
2024/03/31 04:24:17;;;;;;;0.20;0.20;;;15.10;82.10;;;;;;5008965;28;20073;-76
2024/03/31 04:26:42;;;;;;;0.25;0.20;;;15.10;82.50;;;;;;5006353;28;20056;-76
2024/03/31 04:29:08;;;;;;;0.25;0.25;;;15.10;82.30;;;;;;5008509;28;20495;-76
2024/03/31 04:31:34;;;;;;;0.10;0.10;;;15.10;82.80;;;;;;5005575;28;20046;-76
2024/03/31 04:33:59;;;;;;;0.00;0.00;;;15.10;82.60;;;;;;5009248;28;20053;-76
2024/03/31 04:36:25;;;;;;;0.10;0.10;;;15.10;82.70;;;;;;5008755;28;20045;-76
2024/03/31 04:38:51;;;;;;;0.10;0.10;;;15.10;82.60;;;;;;5008355;28;20030;-76
2024/03/31 04:41:16;;;;;;;0.10;0.10;;;15.10;82.30;;;;;;5005152;28;20037;-76
2024/03/31 04:43:42;;;;;;;0.10;0.10;;;15.10;82.00;;;;;;5007066;28;20042;-76
2024/03/31 04:46:08;;;;;;;0.20;0.20;;;15.10;82.00;;;;;;5006636;28;20034;-76
2024/03/31 04:48:34;;;;;;;0.08;0.08;;;15.10;82.00;;;;;;5009928;28;20050;-76
2024/03/31 04:51:06;;;;;;;0.20;0.20;;;15.10;82.30;;;;;;5008620;28;20042;-76
2024/03/31 04:53:33;;;;;;;0.20;0.20;;;15.10;82.40;;;;;;5023005;28;20056;-76
2024/03/31 04:56:02;;;;;;;0.10;0.10;;;15.10;82.30;;;;;;5007556;28;20503;-76
2024/03/31 04:58:28;;;;;;;0.10;0.10;;;15.10;82.50;;;;;;5007342;28;20034;-76
2024/03/31 05:00:53;;;;;;;0.10;0.10;;;15.10;81.60;;;;;;5006424;28;20041;-76
2024/03/31 05:03:21;;;;;;;0.15;0.15;;;15.10;81.80;;;;;;5006638;28;20403;-76
2024/03/31 05:05:46;;;;;;;0.10;0.10;;;15.10;81.50;;;;;;5032945;28;20054;-76
2024/03/31 05:08:12;;;;;;;0.35;0.20;;;15.10;82.10;;;;;;5006997;28;20053;-76
2024/03/31 05:10:38;;;;;;;0.10;0.10;;;15.10;81.90;;;;;;5005348;28;20038;-76
2024/03/31 05:13:03;;;;;;;0.00;0.00;;;15.10;82.30;;;;;;5017895;28;20049;-76
2024/03/31 05:15:29;;;;;;;0.10;0.10;;;15.10;82.10;;;;;;5007966;28;20037;-76
2024/03/31 05:17:54;;;;;;;0.10;0.10;;;15.10;81.90;;;;;;5008130;28;20038;-76
2024/03/31 05:20:21;;;;;;;0.10;0.10;;;15.00;81.90;;;;;;5006781;28;20045;-76
2024/03/31 05:22:47;;;;;;;0.10;0.10;;;15.00;82.00;;;;;;5003346;28;22384;-76
2024/03/31 05:25:13;;;;;;;0.08;0.08;;;15.10;82.30;;;;;;4996530;28;20042;-76
2024/03/31 05:27:39;;;;;;;0.20;0.20;;;15.10;82.60;;;;;;4989602;28;20103;-76
2024/03/31 05:30:05;;;;;;;0.10;0.10;;;15.10;82.90;;;;;;5006869;28;20034;-76
2024/03/31 05:32:30;;;;;;;0.10;0.10;;;15.10;82.60;;;;;;5008874;28;20416;-76
2024/03/31 05:34:56;;;;;;;0.10;0.10;;;15.10;81.90;;;;;;5007988;28;20042;-76
2024/03/31 05:37:21;;;;;;;0.10;0.10;;;15.10;82.70;;;;;;5004865;28;20038;-76
2024/03/31 05:39:47;;;;;;;0.10;0.10;;;15.10;81.90;;;;;;5007007;28;20054;-76
2024/03/31 05:42:12;;;;;;;0.10;0.10;;;15.10;82.60;;;;;;5011783;28;20060;-76
2024/03/31 05:44:38;;;;;;;0.20;0.15;;;15.00;82.90;;;;;;5006952;28;20065;-76
2024/03/31 05:47:04;;;;;;;0.20;0.20;;;15.00;83.00;;;;;;5003367;28;20053;-76
2024/03/31 05:49:30;;;;;;;0.10;0.10;;;15.00;82.60;;;;;;5004195;28;20069;-76
2024/03/31 05:51:55;;;;;;;0.30;0.10;;;15.00;82.80;;;;;;5006689;28;20045;-76
2024/03/31 05:54:21;;;;;;;0.15;0.15;;;15.00;82.80;;;;;;5007307;28;20041;-76
2024/03/31 05:56:46;;;;;;;0.10;0.10;;;15.00;83.40;;;;;;4989696;28;20116;-76
2024/03/31 05:59:12;;;;;;;0.20;0.10;;;15.00;82.90;;;;;;5007807;28;20497;-76
2024/03/31 06:01:37;;;;;;;0.10;0.10;;;15.10;83.30;;;;;;5007037;28;20137;-76
2024/03/31 06:04:03;;;;;;;0.15;0.10;;;15.00;82.90;;;;;;5006598;28;20073;-76
2024/03/31 06:06:29;;;;;;;0.10;0.10;;;15.00;82.50;;;;;;5006893;28;20042;-76
2024/03/31 06:08:54;;;;;;;0.28;0.28;;;15.00;83.20;;;;;;4999597;28;20057;-76
2024/03/31 06:11:20;;;;;;;0.20;0.20;;;15.00;82.80;;;;;;5005367;28;20042;-76
2024/03/31 06:13:46;;;;;;;0.10;0.10;;;15.00;82.50;;;;;;5003474;28;20137;-76
2024/03/31 06:16:13;;;;;;;0.10;0.10;;;15.10;82.60;;;;;;5005949;28;20042;-76
2024/03/31 06:18:38;;;;;;;0.10;0.10;;;15.10;82.30;;;;;;5007165;28;20574;-76
2024/03/31 06:21:07;;;;;;;0.15;0.10;;;15.00;82.20;;;;;;5006314;28;20037;-76
2024/03/31 06:23:35;;;;;;;0.13;0.10;;;15.00;82.90;;;;;;5004374;28;20045;-76
2024/03/31 06:26:00;;;;;;;0.10;0.10;;;15.00;82.50;;;;;;5003527;28;20046;-76
2024/03/31 06:28:26;;;;;;;0.10;0.10;;;15.00;82.50;;;;;;5004798;28;20078;-76
2024/03/31 06:30:51;;;;;;;0.75;0.20;;;15.10;82.40;;;;;;5006015;28;20041;-76
2024/03/31 06:33:17;;;;;;;0.20;0.20;;;15.00;82.80;;;;;;4989770;28;20077;-76
2024/03/31 06:35:43;;;;;;;0.10;0.10;;;15.00;83.00;;;;;;5019178;28;20190;-76
2024/03/31 06:38:08;;;;;;;0.10;0.10;;;15.10;82.50;;;;;;5006043;28;20072;-76
2024/03/31 06:40:35;;;;;;;0.10;0.10;;;15.00;82.70;;;;;;5005663;28;20137;-76
2024/03/31 06:43:00;;;;;;;0.13;0.13;;;15.10;82.50;;;;;;5006289;28;20029;-76
2024/03/31 06:45:27;;;;;;;0.20;0.10;;;15.00;82.40;;;;;;5008315;28;20037;-76
2024/03/31 06:47:53;;;;;;;0.10;0.10;;;15.00;82.00;;;;;;5005137;28;20107;-76
2024/03/31 06:50:19;;;;;;;0.10;0.10;;;15.10;82.30;;;;;;5003975;28;20443;-76
2024/03/31 06:52:44;;;;;;;0.10;0.10;;;15.00;82.80;;;;;;5004480;28;20117;-76
2024/03/31 06:55:10;;;;;;;0.10;0.10;;;15.00;82.60;;;;;;5004894;28;20054;-76
2024/03/31 06:57:35;;;;;;;0.10;0.10;;;15.10;82.40;;;;;;5006599;28;20049;-76
2024/03/31 07:00:01;;;;;;;0.13;0.13;;;15.10;82.70;;;;;;5004267;28;20405;-76
2024/03/31 07:02:26;;;;;;;0.20;0.10;;;15.10;82.30;;;;;;5004452;28;20095;-76
2024/03/31 07:04:52;;;;;;;0.20;0.20;;;15.10;83.00;;;;;;5004325;28;20420;-76
2024/03/31 07:07:17;;;;;;;0.13;0.13;;;15.10;82.60;;;;;;5005722;28;20058;-76
2024/03/31 07:09:44;;;;;;;0.10;0.10;;;15.10;83.00;;;;;;5002764;28;20535;-76
2024/03/31 07:12:09;;;;;;;0.10;0.10;;;15.10;83.10;;;;;;5004483;28;20080;-76
2024/03/31 07:14:36;;;;;;;0.17;0.13;;;15.00;83.10;;;;;;5029926;28;20061;-76
2024/03/31 07:17:01;;;;;;;0.10;0.10;;;15.10;82.80;;;;;;5004184;28;20052;-76
2024/03/31 07:19:27;;;;;;;0.10;0.10;;;15.10;83.10;;;;;;5005146;28;20038;-76
2024/03/31 07:21:53;;;;;;;0.10;0.10;;;15.10;83.10;;;;;;5004081;28;20069;-76
2024/03/31 07:24:18;;;;;;;0.22;0.22;;;15.10;83.00;;;;;;5003441;28;20133;-76
2024/03/31 07:26:44;;;;;;;0.10;0.10;;;15.10;83.00;;;;;;5004498;28;20054;-76
2024/03/31 07:29:09;;;;;;;0.30;0.17;;;15.10;82.60;;;;;;5004260;28;20069;-76
2024/03/31 07:31:35;;;;;;;0.20;0.20;;;15.10;83.00;;;;;;5004531;28;20060;-76
2024/03/31 07:34:00;;;;;;;0.17;0.15;;;15.10;83.10;;;;;;5005409;28;20068;-76
2024/03/31 07:36:26;;;;;;;0.13;0.13;;;15.10;82.30;;;;;;5005332;28;20084;-76
2024/03/31 07:38:52;;;;;;;0.20;0.20;;;15.10;82.20;;;;;;5003292;28;20044;-76
2024/03/31 07:41:17;;;;;;;0.10;0.10;;;15.10;83.00;;;;;;5005507;28;20180;-76
2024/03/31 07:43:43;;;;;;;0.10;0.10;;;15.10;82.80;;;;;;5002978;28;20042;-76
2024/03/31 07:46:09;;;;;;;0.10;0.10;;;15.10;83.10;;;;;;5003148;28;20115;-76
2024/03/31 07:48:35;;;;;;;0.17;0.17;;;15.10;83.10;;;;;;5027397;28;20053;-76
2024/03/31 07:51:01;;;;;;;0.43;0.20;;;15.10;83.40;;;;;;5005303;28;20499;-76
2024/03/31 07:53:27;;;;;;;0.10;0.10;;;15.10;83.00;;;;;;5004559;28;20053;-76
2024/03/31 07:55:59;;;;;;;0.10;0.10;;;15.10;82.60;;;;;;5004789;28;20416;-76
2024/03/31 07:58:24;;;;;;;0.43;0.10;;;15.20;83.20;;;;;;5004245;28;20052;-76
2024/03/31 08:00:51;;;;;;;0.10;0.10;;;15.20;83.10;;;;;;4988365;28;20065;-76
2024/03/31 08:03:17;;;;;;;0.10;0.10;;;15.10;83.40;;;;;;5004063;28;20046;-76
2024/03/31 08:05:43;;;;;;;0.20;0.20;;;15.10;83.40;;;;;;4988066;28;20050;-76
2024/03/31 08:08:08;;;;;;;0.10;0.10;;;15.20;82.90;;;;;;5002981;28;20092;-76
2024/03/31 08:10:34;;;;;;;0.22;0.22;;;15.10;82.70;;;;;;5033017;28;20039;-76
2024/03/31 08:13:01;;;;;;;0.10;0.10;;;15.20;82.80;;;;;;5012366;28;20104;-76
2024/03/31 08:15:27;;;;;;;0.20;0.15;;;15.10;82.40;;;;;;5005053;28;20034;-76
2024/03/31 08:17:53;;;;;;;0.10;0.10;;;15.20;82.50;;;;;;5005637;28;20030;-76
2024/03/31 08:20:18;;;;;;;0.03;0.03;;;15.20;83.30;;;;;;5003583;28;20119;-76
2024/03/31 08:22:44;;;;;;;0.20;0.20;;;15.20;82.80;;;;;;5004568;28;20049;-76
2024/03/31 08:25:09;;;;;;;0.15;0.15;;;15.10;82.60;;;;;;5005241;28;20057;-76
2024/03/31 08:27:35;;;;;;;0.10;0.10;;;15.20;83.30;;;;;;5004294;28;20049;-76
2024/03/31 08:30:01;;;;;;;0.10;0.10;;;15.10;82.70;;;;;;5001873;28;20061;-76
2024/03/31 08:32:26;;;;;;;0.20;0.20;;;15.20;82.90;;;;;;5004304;28;20117;-76
2024/03/31 08:34:52;;;;;;;0.50;0.10;;;15.20;83.00;;;;;;5003893;28;20038;-76
2024/03/31 08:37:18;;;;;;;0.13;0.10;;;15.10;83.10;;;;;;5033157;28;20508;-76
2024/03/31 08:39:44;;;;;;;0.10;0.10;;;15.20;83.10;;;;;;5004141;28;20045;-76
2024/03/31 08:42:37;;;;;;;0.15;0.10;;;15.20;83.70;;;;;;5004853;28;20500;-76
2024/03/31 08:45:04;;;;;;;0.05;0.05;;;15.20;83.20;;;;;;4973013;28;20460;-76
2024/03/31 08:47:31;;;;;;;0.10;0.10;;;15.20;83.40;;;;;;5004641;28;20038;-76
2024/03/31 08:49:56;;;;;;;0.20;0.20;;;15.20;82.80;;;;;;5002871;28;20048;-76
2024/03/31 08:52:23;;;;;;;0.10;0.10;;;15.20;83.30;;;;;;5008188;28;20042;-76
2024/03/31 08:54:49;;;;;;;0.00;0.00;;;15.20;82.80;;;;;;4991063;28;20050;-76
2024/03/31 08:57:15;;;;;;;0.20;0.20;;;15.30;82.20;;;;;;5005923;28;20101;-76
2024/03/31 08:59:41;;;;;;;0.10;0.10;;;15.30;82.70;;;;;;5005652;28;20445;-76
2024/03/31 09:02:08;;;;;;;0.25;0.25;;;15.30;82.80;;;;;;5007508;28;20081;-76
2024/03/31 09:04:33;;;;;;;0.25;0.20;;;15.30;82.80;;;;;;5008985;28;20042;-76
2024/03/31 09:06:59;;;;;;;0.10;0.10;;;15.30;82.80;;;;;;5007060;28;20077;-76
2024/03/31 09:09:25;;;;;;;0.10;0.10;;;15.30;82.10;;;;;;5008830;28;20045;-76
2024/03/31 09:11:50;;;;;;;0.10;0.10;;;15.30;82.40;;;;;;5006003;28;20037;-76
2024/03/31 09:14:16;;;;;;;0.20;0.20;;;15.30;82.30;;;;;;5007591;28;20046;-76
2024/03/31 09:16:49;;;;;;;0.15;0.15;;;15.40;82.30;;;;;;5007456;28;20457;-76
2024/03/31 09:19:14;;;;;;;0.17;0.10;;;15.40;82.20;;;;;;5005661;28;20418;-76
2024/03/31 09:21:46;;;;;;;0.17;0.10;;;15.40;82.20;;;;;;5034993;28;20512;-76
2024/03/31 09:24:12;;;;;;;0.10;0.10;;;15.40;82.40;;;;;;4999404;28;20042;-76
2024/03/31 09:26:38;;;;;;;0.20;0.20;;;15.40;82.50;;;;;;5019509;28;20626;-76
2024/03/31 09:29:04;;;;;;;0.20;0.20;;;15.40;82.10;;;;;;4998095;28;20054;-76
2024/03/31 09:31:30;;;;;;;0.40;0.20;;;15.40;82.00;;;;;;5007449;28;20058;-76
2024/03/31 09:33:56;;;;;;;0.10;0.10;;;15.40;82.40;;;;;;5006202;28;20041;-76
2024/03/31 09:36:21;;;;;;;0.75;0.20;;;15.40;82.30;;;;;;5007193;28;20069;-76
2024/03/31 09:38:47;;;;;;;0.10;0.10;;;15.50;81.90;;;;;;5007488;28;20065;-76
2024/03/31 09:41:12;;;;;;;0.10;0.10;;;15.50;82.10;;;;;;5006519;28;20503;-76
2024/03/31 09:43:38;;;;;;;0.17;0.17;;;15.60;82.00;;;;;;4991135;28;20041;-76
2024/03/31 09:46:06;;;;;;;0.10;0.10;;;15.60;81.70;;;;;;5006520;28;20054;-76
2024/03/31 09:48:32;;;;;;;0.15;0.15;;;15.60;81.50;;;;;;5007749;28;20042;-76
2024/03/31 09:51:09;;;;;;;0.13;0.10;;;15.60;80.70;;;;;;5001877;28;20064;-76
2024/03/31 09:53:34;;;;;;;0.17;0.17;;;15.70;80.40;;;;;;5004950;28;20050;-76
2024/03/31 09:56:03;;;;;;;0.10;0.10;;;15.70;80.90;;;;;;4988815;28;20403;-76
2024/03/31 09:58:32;;;;;;;0.20;0.10;;;15.60;80.20;;;;;;5005678;28;20039;-76
2024/03/31 10:00:58;;;;;;;0.28;0.20;;;15.70;81.00;;;;;;5004172;28;20034;-76
2024/03/31 10:03:35;;;;;;;0.22;0.20;;;15.70;81.00;;;;;;5004964;28;20036;-76
2024/03/31 10:06:01;;;;;;;0.10;0.10;;;15.70;81.50;;;;;;4988636;28;20121;-76
2024/03/31 10:08:29;;;;;;;0.20;0.20;;;15.70;80.90;;;;;;5006966;28;20037;-76
2024/03/31 10:10:59;;;;;;;0.10;0.10;;;15.70;80.90;;;;;;5028152;28;20033;-76
2024/03/31 10:13:28;;;;;;;0.10;0.10;;;15.70;80.90;;;;;;5005244;28;20038;-76
2024/03/31 10:15:54;;;;;;;0.10;0.10;;;15.80;81.20;;;;;;4996948;28;20052;-76
2024/03/31 10:18:21;;;;;;;0.10;0.10;;;15.70;81.30;;;;;;5019768;28;20041;-76
2024/03/31 10:20:46;;;;;;;0.20;0.20;;;15.70;81.50;;;;;;5004227;28;20034;-76
2024/03/31 10:23:12;;;;;;;0.10;0.10;;;15.70;81.50;;;;;;4988026;28;20417;-76
2024/03/31 10:25:38;;;;;;;0.10;0.10;;;15.70;81.40;;;;;;5006263;28;20088;-76
2024/03/31 10:28:04;;;;;;;0.10;0.10;;;15.70;81.40;;;;;;4987331;28;20053;-76
2024/03/31 10:30:30;;;;;;;0.10;0.10;;;15.70;81.70;;;;;;5007323;28;20124;-76
2024/03/31 10:32:55;;;;;;;0.00;0.00;;;15.70;81.60;;;;;;4987595;28;20096;-77
2024/03/31 10:35:21;;;;;;;0.30;0.10;;;15.70;81.70;;;;;;5034498;28;20507;-76
2024/03/31 10:37:47;;;;;;;0.17;0.17;;;15.70;80.90;;;;;;5004865;28;20161;-76
2024/03/31 10:40:13;;;;;;;0.17;0.17;;;15.70;81.00;;;;;;5004409;28;20543;-76
2024/03/31 10:42:40;;;;;;;0.30;0.20;;;15.70;81.50;;;;;;5034925;28;20570;-76
2024/03/31 10:45:06;;;;;;;0.20;0.20;;;15.60;80.80;;;;;;5004368;28;20058;-76
2024/03/31 10:47:32;;;;;;;0.05;0.05;;;15.60;80.70;;;;;;5005499;28;20121;-76
2024/03/31 10:50:02;;;;;;;0.10;0.10;;;15.60;81.20;;;;;;4972779;28;20137;-76
2024/03/31 10:52:28;;;;;;;2.92;0.20;;;15.60;81.30;;;;;;5017232;28;20041;-76
2024/03/31 10:54:54;;;;;;;0.10;0.10;;;15.60;81.40;;;;;;4986538;28;20042;-76
2024/03/31 10:57:20;;;;;;;0.10;0.10;;;15.60;81.50;;;;;;5002130;28;20454;-76
2024/03/31 10:59:45;;;;;;;0.10;0.10;;;15.60;81.50;;;;;;5005358;28;20513;-76
2024/03/31 11:02:14;;;;;;;0.10;0.10;;;15.60;81.90;;;;;;4988118;28;20129;-76
2024/03/31 11:04:41;;;;;;;0.10;0.10;;;15.60;82.20;;;;;;5004158;28;20038;-76
2024/03/31 11:07:07;;;;;;;0.10;0.08;;;15.70;82.40;;;;;;4987654;28;20136;-76
2024/03/31 11:09:33;;;;;;;0.10;0.10;;;15.60;82.30;;;;;;4997115;28;20081;-76
2024/03/31 11:11:59;;;;;;;0.13;0.10;;;15.60;83.00;;;;;;4988615;28;20046;-76
2024/03/31 11:14:25;;;;;;;0.10;0.10;;;15.50;82.80;;;;;;4989544;28;20041;-76
2024/03/31 11:16:51;;;;;;;0.10;0.10;;;15.50;82.20;;;;;;5002018;28;20515;-76
2024/03/31 11:19:21;;;;;;;0.10;0.10;;;15.50;81.80;;;;;;5003045;28;20662;-76
2024/03/31 11:21:47;;;;;;;0.13;0.13;;;15.50;82.60;;;;;;5006062;28;20513;-76
2024/03/31 11:24:13;;;;;;;0.15;0.10;;;15.40;82.70;;;;;;5004849;28;20042;-76
2024/03/31 11:26:39;;;;;;;0.10;0.10;;;15.50;82.50;;;;;;5004374;28;20044;-76
2024/03/31 11:29:04;;;;;;;0.10;0.05;;;15.40;82.60;;;;;;4986241;28;20060;-76
2024/03/31 11:31:30;;;;;;;0.10;0.10;;;15.40;82.60;;;;;;4985189;28;20133;-76
2024/03/31 11:33:56;;;;;;;0.15;0.15;;;15.40;82.90;;;;;;5005719;28;20534;-76
2024/03/31 11:36:22;;;;;;;0.10;0.10;;;15.40;82.80;;;;;;5002567;28;20515;-76
2024/03/31 11:38:47;;;;;;;0.10;0.10;;;15.40;83.00;;;;;;5005323;28;20038;-76
2024/03/31 11:41:13;;;;;;;0.17;0.17;;;15.40;82.50;;;;;;4986148;28;20087;-76
2024/03/31 11:43:38;;;;;;;0.13;0.13;;;15.40;82.70;;;;;;4990889;28;20030;-76
2024/03/31 11:46:04;;;;;;;0.13;0.13;;;15.50;82.80;;;;;;5004332;28;20077;-76
2024/03/31 11:48:30;;;;;;;0.15;0.15;;;15.50;83.20;;;;;;5006231;28;20041;-76
2024/03/31 11:50:55;;;;;;;0.10;0.08;;;15.40;82.70;;;;;;4998563;28;20049;-76
2024/03/31 11:53:21;;;;;;;0.10;0.10;;;15.40;83.20;;;;;;5003954;28;20053;-76
2024/03/31 11:55:47;;;;;;;0.20;0.20;;;15.50;83.40;;;;;;5005238;28;20034;-76
2024/03/31 11:58:13;;;;;;;0.10;0.10;;;15.40;83.40;;;;;;5003046;28;20037;-76
2024/03/31 12:00:46;;;;;;;0.20;0.20;;;15.40;83.30;;;;;;5006877;28;20046;-76
2024/03/31 12:03:12;;;;;;;0.10;0.10;;;15.40;83.20;;;;;;5004181;28;20048;-76
2024/03/31 12:05:38;;;;;;;0.10;0.10;;;15.40;83.70;;;;;;5004294;28;20042;-76
2024/03/31 12:08:04;;;;;;;0.13;0.13;;;15.40;83.40;;;;;;5003471;28;20026;-76
2024/03/31 12:10:29;;;;;;;0.10;0.10;;;15.40;83.00;;;;;;5031789;28;20034;-76
2024/03/31 12:12:55;;;;;;;0.10;0.10;;;15.40;82.80;;;;;;4988131;28;20038;-76
2024/03/31 12:15:21;;;;;;;0.10;0.10;;;15.40;82.90;;;;;;5004228;28;20046;-76
2024/03/31 12:17:47;;;;;;;0.10;0.10;;;15.40;83.30;;;;;;5000778;28;20533;-76
2024/03/31 12:20:12;;;;;;;0.10;0.10;;;15.40;83.40;;;;;;4987054;28;20056;-76
2024/03/31 12:22:41;;;;;;;0.17;0.17;;;15.40;83.50;;;;;;4987729;28;20105;-76
2024/03/31 12:25:08;;;;;;;0.10;0.10;;;15.40;83.30;;;;;;4992669;28;20038;-76
2024/03/31 12:27:35;;;;;;;0.08;0.08;;;15.40;83.40;;;;;;5009353;28;20046;-76
2024/03/31 12:30:03;;;;;;;0.10;0.10;;;15.40;83.30;;;;;;5005520;28;20044;-76
2024/03/31 12:32:29;;;;;;;0.00;0.00;;;15.40;83.00;;;;;;5008917;28;20045;-76
2024/03/31 12:34:55;;;;;;;0.10;0.10;;;15.40;83.00;;;;;;5007730;28;20050;-77
2024/03/31 12:37:21;;;;;;;0.10;0.10;;;15.40;82.60;;;;;;5006930;28;20045;-76
2024/03/31 12:39:46;;;;;;;0.10;0.10;;;15.40;82.90;;;;;;5008239;28;20545;-76
2024/03/31 12:42:13;;;;;;;0.10;0.10;;;15.40;82.80;;;;;;5005106;28;20479;-76